sensor_id;sensor_type;location;lat;lon;timestamp;P1;durP1;ratioP1;P2;durP2;ratioP2
42662;SDS011;44330;51.360;6.686;2023-03-12T00:01:15;13.35;;;5.75;;
42662;SDS011;44330;51.360;6.686;2023-03-12T00:03:46;13.45;;;6.00;;
42662;SDS011;44330;51.360;6.686;2023-03-12T00:06:12;15.23;;;6.32;;
42662;SDS011;44330;51.360;6.686;2023-03-12T00:08:42;12.90;;;6.38;;
42662;SDS011;44330;51.360;6.686;2023-03-12T00:11:09;20.30;;;6.95;;
42662;SDS011;44330;51.360;6.686;2023-03-12T00:13:35;13.55;;;7.05;;
42662;SDS011;44330;51.360;6.686;2023-03-12T00:16:02;18.63;;;6.88;;
42662;SDS011;44330;51.360;6.686;2023-03-12T00:18:29;13.02;;;6.13;;
42662;SDS011;44330;51.360;6.686;2023-03-12T00:20:54;13.82;;;5.70;;
42662;SDS011;44330;51.360;6.686;2023-03-12T00:23:20;18.10;;;6.72;;
42662;SDS011;44330;51.360;6.686;2023-03-12T00:25:45;12.52;;;5.70;;
42662;SDS011;44330;51.360;6.686;2023-03-12T00:28:11;12.02;;;6.63;;
42662;SDS011;44330;51.360;6.686;2023-03-12T00:30:36;13.68;;;6.18;;
42662;SDS011;44330;51.360;6.686;2023-03-12T00:33:02;12.73;;;5.85;;
42662;SDS011;44330;51.360;6.686;2023-03-12T00:35:27;20.15;;;6.40;;
42662;SDS011;44330;51.360;6.686;2023-03-12T00:37:53;15.23;;;6.05;;
42662;SDS011;44330;51.360;6.686;2023-03-12T00:40:18;13.27;;;5.60;;
42662;SDS011;44330;51.360;6.686;2023-03-12T00:42:44;16.25;;;5.85;;
42662;SDS011;44330;51.360;6.686;2023-03-12T00:45:10;13.13;;;5.05;;
42662;SDS011;44330;51.360;6.686;2023-03-12T00:47:35;12.20;;;5.50;;
42662;SDS011;44330;51.360;6.686;2023-03-12T00:50:01;13.13;;;5.47;;
42662;SDS011;44330;51.360;6.686;2023-03-12T00:52:27;17.85;;;5.15;;
42662;SDS011;44330;51.360;6.686;2023-03-12T00:54:52;11.57;;;4.55;;
42662;SDS011;44330;51.360;6.686;2023-03-12T00:57:22;7.05;;;4.80;;
42662;SDS011;44330;51.360;6.686;2023-03-12T00:59:47;9.75;;;4.28;;
42662;SDS011;44330;51.360;6.686;2023-03-12T01:02:13;8.95;;;4.22;;
42662;SDS011;44330;51.360;6.686;2023-03-12T01:04:38;14.38;;;4.45;;
42662;SDS011;44330;51.360;6.686;2023-03-12T01:07:04;10.98;;;4.20;;
42662;SDS011;44330;51.360;6.686;2023-03-12T01:09:30;11.32;;;4.47;;
42662;SDS011;44330;51.360;6.686;2023-03-12T01:11:55;10.63;;;3.90;;
42662;SDS011;44330;51.360;6.686;2023-03-12T01:14:20;9.90;;;4.10;;
42662;SDS011;44330;51.360;6.686;2023-03-12T01:16:46;10.50;;;4.30;;
42662;SDS011;44330;51.360;6.686;2023-03-12T01:19:12;7.05;;;3.85;;
42662;SDS011;44330;51.360;6.686;2023-03-12T01:21:37;9.18;;;4.22;;
42662;SDS011;44330;51.360;6.686;2023-03-12T01:24:03;9.18;;;3.90;;
42662;SDS011;44330;51.360;6.686;2023-03-12T01:26:28;11.93;;;4.10;;
42662;SDS011;44330;51.360;6.686;2023-03-12T01:28:54;7.47;;;3.58;;
42662;SDS011;44330;51.360;6.686;2023-03-12T01:31:20;6.82;;;3.85;;
42662;SDS011;44330;51.360;6.686;2023-03-12T01:33:49;9.55;;;3.72;;
42662;SDS011;44330;51.360;6.686;2023-03-12T01:36:20;7.43;;;3.63;;
42662;SDS011;44330;51.360;6.686;2023-03-12T01:38:50;10.38;;;4.05;;
42662;SDS011;44330;51.360;6.686;2023-03-12T01:41:18;9.65;;;3.88;;
42662;SDS011;44330;51.360;6.686;2023-03-12T01:43:44;8.95;;;3.22;;
42662;SDS011;44330;51.360;6.686;2023-03-12T01:48:58;15.25;;;3.67;;
42662;SDS011;44330;51.360;6.686;2023-03-12T01:51:58;5.95;;;2.85;;
42662;SDS011;44330;51.360;6.686;2023-03-12T01:54:35;8.18;;;3.58;;
42662;SDS011;44330;51.360;6.686;2023-03-12T01:57:10;8.05;;;3.10;;
42662;SDS011;44330;51.360;6.686;2023-03-12T01:59:41;13.00;;;3.55;;
42662;SDS011;44330;51.360;6.686;2023-03-12T02:02:14;8.40;;;3.30;;
42662;SDS011;44330;51.360;6.686;2023-03-12T02:04:41;8.88;;;3.38;;
42662;SDS011;44330;51.360;6.686;2023-03-12T02:07:12;11.65;;;3.60;;
42662;SDS011;44330;51.360;6.686;2023-03-12T02:09:41;7.15;;;3.30;;
42662;SDS011;44330;51.360;6.686;2023-03-12T02:12:09;7.97;;;3.00;;
42662;SDS011;44330;51.360;6.686;2023-03-12T02:14:34;13.32;;;3.63;;
42662;SDS011;44330;51.360;6.686;2023-03-12T02:17:00;8.82;;;3.13;;
42662;SDS011;44330;51.360;6.686;2023-03-12T02:19:30;13.43;;;3.05;;
42662;SDS011;44330;51.360;6.686;2023-03-12T02:22:09;7.07;;;3.45;;
42662;SDS011;44330;51.360;6.686;2023-03-12T02:24:38;8.90;;;3.40;;
42662;SDS011;44330;51.360;6.686;2023-03-12T02:27:08;12.85;;;3.28;;
42662;SDS011;44330;51.360;6.686;2023-03-12T02:29:37;11.10;;;3.45;;
42662;SDS011;44330;51.360;6.686;2023-03-12T02:32:05;9.85;;;3.55;;
42662;SDS011;44330;51.360;6.686;2023-03-12T02:34:33;24.02;;;3.95;;
42662;SDS011;44330;51.360;6.686;2023-03-12T02:36:59;9.18;;;3.45;;
42662;SDS011;44330;51.360;6.686;2023-03-12T02:39:25;15.38;;;3.97;;
42662;SDS011;44330;51.360;6.686;2023-03-12T02:41:55;7.43;;;3.05;;
42662;SDS011;44330;51.360;6.686;2023-03-12T02:44:23;13.45;;;3.40;;
42662;SDS011;44330;51.360;6.686;2023-03-12T02:46:53;14.38;;;4.13;;
42662;SDS011;44330;51.360;6.686;2023-03-12T02:49:20;7.40;;;3.38;;
42662;SDS011;44330;51.360;6.686;2023-03-12T02:51:48;13.95;;;3.30;;
42662;SDS011;44330;51.360;6.686;2023-03-12T02:54:15;7.63;;;3.42;;
42662;SDS011;44330;51.360;6.686;2023-03-12T02:56:42;11.70;;;3.58;;
42662;SDS011;44330;51.360;6.686;2023-03-12T02:59:08;9.38;;;3.42;;
42662;SDS011;44330;51.360;6.686;2023-03-12T03:01:34;6.22;;;3.20;;
42662;SDS011;44330;51.360;6.686;2023-03-12T03:04:00;8.75;;;3.88;;
42662;SDS011;44330;51.360;6.686;2023-03-12T03:06:26;8.93;;;3.10;;
42662;SDS011;44330;51.360;6.686;2023-03-12T03:08:52;6.25;;;2.90;;
42662;SDS011;44330;51.360;6.686;2023-03-12T03:11:18;14.65;;;3.75;;
42662;SDS011;44330;51.360;6.686;2023-03-12T03:13:48;11.27;;;3.22;;
42662;SDS011;44330;51.360;6.686;2023-03-12T03:16:14;13.77;;;3.42;;
42662;SDS011;44330;51.360;6.686;2023-03-12T03:18:39;5.85;;;3.40;;
42662;SDS011;44330;51.360;6.686;2023-03-12T03:21:06;8.82;;;3.13;;
42662;SDS011;44330;51.360;6.686;2023-03-12T03:23:33;11.40;;;3.40;;
42662;SDS011;44330;51.360;6.686;2023-03-12T03:25:59;10.48;;;3.20;;
42662;SDS011;44330;51.360;6.686;2023-03-12T03:28:25;7.60;;;3.25;;
42662;SDS011;44330;51.360;6.686;2023-03-12T03:30:53;10.23;;;3.38;;
42662;SDS011;44330;51.360;6.686;2023-03-12T03:35:47;6.40;;;3.30;;
42662;SDS011;44330;51.360;6.686;2023-03-12T03:38:13;8.93;;;3.33;;
42662;SDS011;44330;51.360;6.686;2023-03-12T03:40:38;12.05;;;3.40;;
42662;SDS011;44330;51.360;6.686;2023-03-12T03:43:04;15.73;;;3.08;;
42662;SDS011;44330;51.360;6.686;2023-03-12T03:45:30;8.20;;;3.25;;
42662;SDS011;44330;51.360;6.686;2023-03-12T03:47:55;9.35;;;3.25;;
42662;SDS011;44330;51.360;6.686;2023-03-12T03:50:21;11.82;;;2.72;;
42662;SDS011;44330;51.360;6.686;2023-03-12T03:52:46;8.93;;;3.20;;
42662;SDS011;44330;51.360;6.686;2023-03-12T03:55:12;17.90;;;2.90;;
42662;SDS011;44330;51.360;6.686;2023-03-12T03:57:37;6.72;;;2.85;;
42662;SDS011;44330;51.360;6.686;2023-03-12T04:00:03;10.93;;;2.80;;
42662;SDS011;44330;51.360;6.686;2023-03-12T04:02:37;9.52;;;2.65;;
42662;SDS011;44330;51.360;6.686;2023-03-12T04:05:03;7.75;;;3.22;;
42662;SDS011;44330;51.360;6.686;2023-03-12T04:07:29;10.05;;;3.40;;
42662;SDS011;44330;51.360;6.686;2023-03-12T04:09:54;13.10;;;2.72;;
42662;SDS011;44330;51.360;6.686;2023-03-12T04:12:21;6.55;;;2.65;;
42662;SDS011;44330;51.360;6.686;2023-03-12T04:14:49;7.40;;;2.28;;
42662;SDS011;44330;51.360;6.686;2023-03-12T04:17:16;10.88;;;2.75;;
42662;SDS011;44330;51.360;6.686;2023-03-12T04:19:41;16.15;;;3.00;;
42662;SDS011;44330;51.360;6.686;2023-03-12T04:22:07;11.60;;;4.13;;
42662;SDS011;44330;51.360;6.686;2023-03-12T04:24:33;7.53;;;3.15;;
42662;SDS011;44330;51.360;6.686;2023-03-12T04:26:58;11.93;;;2.90;;
42662;SDS011;44330;51.360;6.686;2023-03-12T04:29:24;8.27;;;2.90;;
42662;SDS011;44330;51.360;6.686;2023-03-12T04:31:50;7.00;;;2.60;;
42662;SDS011;44330;51.360;6.686;2023-03-12T04:34:15;4.78;;;2.58;;
42662;SDS011;44330;51.360;6.686;2023-03-12T04:36:41;5.22;;;2.80;;
42662;SDS011;44330;51.360;6.686;2023-03-12T04:39:06;6.90;;;2.30;;
42662;SDS011;44330;51.360;6.686;2023-03-12T04:41:33;6.20;;;2.92;;
42662;SDS011;44330;51.360;6.686;2023-03-12T04:43:59;8.13;;;2.58;;
42662;SDS011;44330;51.360;6.686;2023-03-12T04:46:25;11.98;;;3.00;;
42662;SDS011;44330;51.360;6.686;2023-03-12T04:48:51;12.02;;;3.17;;
42662;SDS011;44330;51.360;6.686;2023-03-12T04:51:16;7.50;;;2.60;;
42662;SDS011;44330;51.360;6.686;2023-03-12T04:53:42;8.30;;;2.65;;
42662;SDS011;44330;51.360;6.686;2023-03-12T04:56:08;8.68;;;2.90;;
42662;SDS011;44330;51.360;6.686;2023-03-12T04:58:33;4.85;;;2.42;;
42662;SDS011;44330;51.360;6.686;2023-03-12T05:00:59;7.72;;;2.65;;
42662;SDS011;44330;51.360;6.686;2023-03-12T05:03:25;13.02;;;3.08;;
42662;SDS011;44330;51.360;6.686;2023-03-12T05:05:51;8.50;;;2.88;;
42662;SDS011;44330;51.360;6.686;2023-03-12T05:08:17;12.68;;;2.63;;
42662;SDS011;44330;51.360;6.686;2023-03-12T05:10:42;5.88;;;2.45;;
42662;SDS011;44330;51.360;6.686;2023-03-12T05:13:18;8.02;;;2.53;;
42662;SDS011;44330;51.360;6.686;2023-03-12T05:15:45;9.65;;;2.53;;
42662;SDS011;44330;51.360;6.686;2023-03-12T05:18:12;9.27;;;3.20;;
42662;SDS011;44330;51.360;6.686;2023-03-12T05:20:38;24.33;;;3.17;;
42662;SDS011;44330;51.360;6.686;2023-03-12T05:23:04;8.65;;;3.33;;
42662;SDS011;44330;51.360;6.686;2023-03-12T05:25:30;6.20;;;2.50;;
42662;SDS011;44330;51.360;6.686;2023-03-12T05:27:55;25.25;;;3.08;;
42662;SDS011;44330;51.360;6.686;2023-03-12T05:30:21;11.25;;;2.80;;
42662;SDS011;44330;51.360;6.686;2023-03-12T05:32:46;7.55;;;2.75;;
42662;SDS011;44330;51.360;6.686;2023-03-12T05:35:12;8.40;;;3.10;;
42662;SDS011;44330;51.360;6.686;2023-03-12T05:37:37;7.55;;;3.22;;
42662;SDS011;44330;51.360;6.686;2023-03-12T05:40:03;30.75;;;3.22;;
42662;SDS011;44330;51.360;6.686;2023-03-12T05:42:31;18.40;;;3.22;;
42662;SDS011;44330;51.360;6.686;2023-03-12T05:44:57;11.82;;;2.75;;
42662;SDS011;44330;51.360;6.686;2023-03-12T05:47:23;6.85;;;2.65;;
42662;SDS011;44330;51.360;6.686;2023-03-12T05:49:48;9.18;;;2.50;;
42662;SDS011;44330;51.360;6.686;2023-03-12T05:52:14;8.45;;;2.55;;
42662;SDS011;44330;51.360;6.686;2023-03-12T05:54:40;8.85;;;2.50;;
42662;SDS011;44330;51.360;6.686;2023-03-12T05:57:05;7.70;;;2.22;;
42662;SDS011;44330;51.360;6.686;2023-03-12T05:59:31;10.32;;;3.08;;
42662;SDS011;44330;51.360;6.686;2023-03-12T06:01:56;7.00;;;2.55;;
42662;SDS011;44330;51.360;6.686;2023-03-12T06:04:22;11.57;;;2.67;;
42662;SDS011;44330;51.360;6.686;2023-03-12T06:06:48;9.88;;;2.20;;
42662;SDS011;44330;51.360;6.686;2023-03-12T06:09:13;5.78;;;2.28;;
42662;SDS011;44330;51.360;6.686;2023-03-12T06:11:39;10.77;;;3.10;;
42662;SDS011;44330;51.360;6.686;2023-03-12T06:14:04;8.70;;;2.58;;
42662;SDS011;44330;51.360;6.686;2023-03-12T06:16:30;9.57;;;2.75;;
42662;SDS011;44330;51.360;6.686;2023-03-12T06:18:56;6.20;;;2.80;;
42662;SDS011;44330;51.360;6.686;2023-03-12T06:21:25;5.37;;;2.60;;
42662;SDS011;44330;51.360;6.686;2023-03-12T06:23:53;12.13;;;2.80;;
42662;SDS011;44330;51.360;6.686;2023-03-12T06:26:19;8.15;;;2.50;;
42662;SDS011;44330;51.360;6.686;2023-03-12T06:28:46;9.60;;;3.00;;
42662;SDS011;44330;51.360;6.686;2023-03-12T06:31:14;12.70;;;3.10;;
42662;SDS011;44330;51.360;6.686;2023-03-12T06:33:39;12.23;;;2.75;;
42662;SDS011;44330;51.360;6.686;2023-03-12T06:36:07;10.00;;;2.85;;
42662;SDS011;44330;51.360;6.686;2023-03-12T06:38:34;11.25;;;3.22;;
42662;SDS011;44330;51.360;6.686;2023-03-12T06:41:01;9.98;;;3.38;;
42662;SDS011;44330;51.360;6.686;2023-03-12T06:43:31;15.35;;;4.05;;
42662;SDS011;44330;51.360;6.686;2023-03-12T06:45:58;8.27;;;2.90;;
42662;SDS011;44330;51.360;6.686;2023-03-12T06:48:25;10.35;;;3.50;;
42662;SDS011;44330;51.360;6.686;2023-03-12T06:50:52;22.98;;;3.60;;
42662;SDS011;44330;51.360;6.686;2023-03-12T06:53:18;9.35;;;3.22;;
42662;SDS011;44330;51.360;6.686;2023-03-12T06:55:44;14.45;;;4.18;;
42662;SDS011;44330;51.360;6.686;2023-03-12T06:58:11;8.55;;;3.28;;
42662;SDS011;44330;51.360;6.686;2023-03-12T07:00:37;8.88;;;3.42;;
42662;SDS011;44330;51.360;6.686;2023-03-12T07:03:02;8.27;;;3.55;;
42662;SDS011;44330;51.360;6.686;2023-03-12T07:05:28;11.07;;;4.10;;
42662;SDS011;44330;51.360;6.686;2023-03-12T07:07:56;4.95;;;3.22;;
42662;SDS011;44330;51.360;6.686;2023-03-12T07:10:22;12.32;;;3.65;;
42662;SDS011;44330;51.360;6.686;2023-03-12T07:12:48;10.48;;;3.80;;
42662;SDS011;44330;51.360;6.686;2023-03-12T07:15:13;5.50;;;3.10;;
42662;SDS011;44330;51.360;6.686;2023-03-12T07:17:39;17.27;;;3.88;;
42662;SDS011;44330;51.360;6.686;2023-03-12T07:20:05;11.25;;;3.47;;
42662;SDS011;44330;51.360;6.686;2023-03-12T07:22:32;6.85;;;3.28;;
42662;SDS011;44330;51.360;6.686;2023-03-12T07:24:57;11.90;;;3.25;;
42662;SDS011;44330;51.360;6.686;2023-03-12T07:27:23;7.38;;;3.13;;
42662;SDS011;44330;51.360;6.686;2023-03-12T07:29:48;14.23;;;3.30;;
42662;SDS011;44330;51.360;6.686;2023-03-12T07:32:14;16.33;;;3.08;;
42662;SDS011;44330;51.360;6.686;2023-03-12T07:34:40;11.02;;;3.40;;
42662;SDS011;44330;51.360;6.686;2023-03-12T07:37:06;6.78;;;3.63;;
42662;SDS011;44330;51.360;6.686;2023-03-12T07:39:31;10.98;;;3.30;;
42662;SDS011;44330;51.360;6.686;2023-03-12T07:41:57;10.77;;;2.72;;
42662;SDS011;44330;51.360;6.686;2023-03-12T07:44:22;12.32;;;3.00;;
42662;SDS011;44330;51.360;6.686;2023-03-12T07:46:50;14.57;;;3.30;;
42662;SDS011;44330;51.360;6.686;2023-03-12T07:49:16;9.20;;;3.58;;
42662;SDS011;44330;51.360;6.686;2023-03-12T07:51:41;4.82;;;2.83;;
42662;SDS011;44330;51.360;6.686;2023-03-12T07:54:07;12.68;;;4.05;;
42662;SDS011;44330;51.360;6.686;2023-03-12T07:56:32;7.82;;;2.97;;
42662;SDS011;44330;51.360;6.686;2023-03-12T07:58:58;7.72;;;3.03;;
42662;SDS011;44330;51.360;6.686;2023-03-12T08:01:23;10.57;;;3.10;;
42662;SDS011;44330;51.360;6.686;2023-03-12T08:03:55;8.80;;;3.80;;
42662;SDS011;44330;51.360;6.686;2023-03-12T08:06:25;10.98;;;3.20;;
42662;SDS011;44330;51.360;6.686;2023-03-12T08:08:51;13.85;;;3.53;;
42662;SDS011;44330;51.360;6.686;2023-03-12T08:11:17;15.40;;;3.25;;
42662;SDS011;44330;51.360;6.686;2023-03-12T08:13:43;7.35;;;3.80;;
42662;SDS011;44330;51.360;6.686;2023-03-12T08:16:08;11.75;;;3.35;;
42662;SDS011;44330;51.360;6.686;2023-03-12T08:18:34;10.68;;;3.13;;
42662;SDS011;44330;51.360;6.686;2023-03-12T08:20:59;10.05;;;4.10;;
42662;SDS011;44330;51.360;6.686;2023-03-12T08:23:25;8.70;;;3.63;;
42662;SDS011;44330;51.360;6.686;2023-03-12T08:25:51;5.72;;;3.30;;
42662;SDS011;44330;51.360;6.686;2023-03-12T08:28:17;12.52;;;3.90;;
42662;SDS011;44330;51.360;6.686;2023-03-12T08:30:51;12.60;;;4.07;;
42662;SDS011;44330;51.360;6.686;2023-03-12T08:33:18;12.75;;;4.03;;
42662;SDS011;44330;51.360;6.686;2023-03-12T08:35:44;14.10;;;3.97;;
42662;SDS011;44330;51.360;6.686;2023-03-12T08:38:10;14.68;;;4.32;;
42662;SDS011;44330;51.360;6.686;2023-03-12T08:40:37;9.93;;;4.68;;
42662;SDS011;44330;51.360;6.686;2023-03-12T08:43:02;6.97;;;4.30;;
42662;SDS011;44330;51.360;6.686;2023-03-12T08:45:28;8.73;;;4.65;;
42662;SDS011;44330;51.360;6.686;2023-03-12T08:47:54;10.48;;;4.60;;
42662;SDS011;44330;51.360;6.686;2023-03-12T08:50:20;15.15;;;4.57;;
42662;SDS011;44330;51.360;6.686;2023-03-12T08:52:46;11.02;;;5.10;;
42662;SDS011;44330;51.360;6.686;2023-03-12T08:55:12;9.65;;;4.38;;
42662;SDS011;44330;51.360;6.686;2023-03-12T08:57:38;9.52;;;5.00;;
42662;SDS011;44330;51.360;6.686;2023-03-12T09:00:04;16.23;;;4.70;;
42662;SDS011;44330;51.360;6.686;2023-03-12T09:02:35;15.15;;;5.63;;
42662;SDS011;44330;51.360;6.686;2023-03-12T09:05:01;11.23;;;5.80;;
42662;SDS011;44330;51.360;6.686;2023-03-12T09:07:26;14.52;;;5.47;;
42662;SDS011;44330;51.360;6.686;2023-03-12T09:09:53;8.65;;;5.47;;
42662;SDS011;44330;51.360;6.686;2023-03-12T09:12:19;13.05;;;5.70;;
42662;SDS011;44330;51.360;6.686;2023-03-12T09:14:44;11.30;;;5.55;;
42662;SDS011;44330;51.360;6.686;2023-03-12T09:17:10;11.50;;;6.10;;
42662;SDS011;44330;51.360;6.686;2023-03-12T09:19:35;18.27;;;6.55;;
42662;SDS011;44330;51.360;6.686;2023-03-12T09:22:01;10.48;;;6.18;;
42662;SDS011;44330;51.360;6.686;2023-03-12T09:24:27;13.70;;;5.97;;
42662;SDS011;44330;51.360;6.686;2023-03-12T09:26:52;11.55;;;6.03;;
42662;SDS011;44330;51.360;6.686;2023-03-12T09:29:17;12.07;;;5.80;;
42662;SDS011;44330;51.360;6.686;2023-03-12T09:31:43;16.02;;;6.93;;
42662;SDS011;44330;51.360;6.686;2023-03-12T09:34:09;17.05;;;6.80;;
42662;SDS011;44330;51.360;6.686;2023-03-12T09:36:34;14.02;;;6.32;;
42662;SDS011;44330;51.360;6.686;2023-03-12T09:39:00;13.10;;;6.72;;
42662;SDS011;44330;51.360;6.686;2023-03-12T09:41:27;13.43;;;7.22;;
42662;SDS011;44330;51.360;6.686;2023-03-12T09:46:58;15.45;;;7.50;;
42662;SDS011;44330;51.360;6.686;2023-03-12T09:49:20;16.98;;;8.23;;
42662;SDS011;44330;51.360;6.686;2023-03-12T09:51:48;16.58;;;7.85;;
42662;SDS011;44330;51.360;6.686;2023-03-12T09:57:10;12.65;;;8.23;;
42662;SDS011;44330;51.360;6.686;2023-03-12T09:59:38;14.50;;;8.93;;
42662;SDS011;44330;51.360;6.686;2023-03-12T10:02:05;16.05;;;8.45;;
42662;SDS011;44330;51.360;6.686;2023-03-12T10:07:30;14.40;;;9.13;;
42662;SDS011;44330;51.360;6.686;2023-03-12T10:20:55;12.45;;;8.20;;
42662;SDS011;44330;51.360;6.686;2023-03-12T10:23:40;15.55;;;8.30;;
42662;SDS011;44330;51.360;6.686;2023-03-12T10:26:42;12.20;;;7.82;;
42662;SDS011;44330;51.360;6.686;2023-03-12T10:29:15;13.20;;;7.55;;
42662;SDS011;44330;51.360;6.686;2023-03-12T10:32:01;11.50;;;8.57;;
42662;SDS011;44330;51.360;6.686;2023-03-12T10:34:35;17.20;;;11.10;;
42662;SDS011;44330;51.360;6.686;2023-03-12T10:37:24;12.65;;;8.50;;
42662;SDS011;44330;51.360;6.686;2023-03-12T10:42:20;12.40;;;8.40;;
42662;SDS011;44330;51.360;6.686;2023-03-12T10:44:50;13.20;;;9.63;;
42662;SDS011;44330;51.360;6.686;2023-03-12T10:47:27;13.98;;;8.80;;
42662;SDS011;44330;51.360;6.686;2023-03-12T10:50:13;12.60;;;9.00;;
42662;SDS011;44330;51.360;6.686;2023-03-12T10:52:48;14.20;;;9.05;;
42662;SDS011;44330;51.360;6.686;2023-03-12T10:55:23;13.70;;;8.48;;
42662;SDS011;44330;51.360;6.686;2023-03-12T10:57:51;13.98;;;8.77;;
42662;SDS011;44330;51.360;6.686;2023-03-12T11:02:54;15.75;;;11.07;;
42662;SDS011;44330;51.360;6.686;2023-03-12T11:05:27;15.48;;;9.82;;
42662;SDS011;44330;51.360;6.686;2023-03-12T11:07:53;13.55;;;9.43;;
42662;SDS011;44330;51.360;6.686;2023-03-12T11:10:21;18.02;;;9.75;;
42662;SDS011;44330;51.360;6.686;2023-03-12T11:12:57;17.23;;;11.30;;
42662;SDS011;44330;51.360;6.686;2023-03-12T11:18:04;17.02;;;10.13;;
42662;SDS011;44330;51.360;6.686;2023-03-12T11:20:43;14.35;;;10.50;;
42662;SDS011;44330;51.360;6.686;2023-03-12T11:23:13;14.35;;;10.60;;
42662;SDS011;44330;51.360;6.686;2023-03-12T11:26:01;17.90;;;11.57;;
42662;SDS011;44330;51.360;6.686;2023-03-12T11:28:39;16.08;;;10.52;;
42662;SDS011;44330;51.360;6.686;2023-03-12T11:31:10;16.15;;;10.52;;
42662;SDS011;44330;51.360;6.686;2023-03-12T11:33:44;19.77;;;12.63;;
42662;SDS011;44330;51.360;6.686;2023-03-12T11:36:17;18.75;;;11.88;;
42662;SDS011;44330;51.360;6.686;2023-03-12T11:41:45;15.60;;;10.98;;
42662;SDS011;44330;51.360;6.686;2023-03-12T11:44:30;18.00;;;11.30;;
42662;SDS011;44330;51.360;6.686;2023-03-12T11:47:12;16.40;;;11.02;;
42662;SDS011;44330;51.360;6.686;2023-03-12T12:17:18;26.05;;;14.13;;
42662;SDS011;44330;51.360;6.686;2023-03-12T12:19:56;26.85;;;13.57;;
42662;SDS011;44330;51.360;6.686;2023-03-12T12:22:41;34.38;;;14.30;;
42662;SDS011;44330;51.360;6.686;2023-03-12T12:28:37;32.90;;;12.57;;
42662;SDS011;44330;51.360;6.686;2023-03-12T12:36:14;32.42;;;14.15;;
42662;SDS011;44330;51.360;6.686;2023-03-12T12:38:52;37.83;;;14.05;;
42662;SDS011;44330;51.360;6.686;2023-03-12T12:41:25;41.90;;;14.30;;
42662;SDS011;44330;51.360;6.686;2023-03-12T12:43:56;31.52;;;14.05;;
42662;SDS011;44330;51.360;6.686;2023-03-12T12:46:29;46.10;;;14.13;;
42662;SDS011;44330;51.360;6.686;2023-03-12T12:49:00;47.97;;;14.85;;
42662;SDS011;44330;51.360;6.686;2023-03-12T12:51:35;48.20;;;14.85;;
42662;SDS011;44330;51.360;6.686;2023-03-12T12:54:22;43.40;;;13.80;;
42662;SDS011;44330;51.360;6.686;2023-03-12T13:02:24;44.05;;;11.57;;
42662;SDS011;44330;51.360;6.686;2023-03-12T13:04:55;40.03;;;12.07;;
42662;SDS011;44330;51.360;6.686;2023-03-12T13:09:51;44.83;;;10.40;;
42662;SDS011;44330;51.360;6.686;2023-03-12T13:20:23;43.63;;;8.35;;
42662;SDS011;44330;51.360;6.686;2023-03-12T13:23:00;37.65;;;7.68;;
42662;SDS011;44330;51.360;6.686;2023-03-12T13:25:56;38.22;;;6.80;;
42662;SDS011;44330;51.360;6.686;2023-03-12T13:34:26;36.63;;;7.03;;
42662;SDS011;44330;51.360;6.686;2023-03-12T13:36:49;30.38;;;8.23;;
42662;SDS011;44330;51.360;6.686;2023-03-12T13:41:45;34.53;;;6.85;;
42662;SDS011;44330;51.360;6.686;2023-03-12T13:44:30;36.05;;;7.78;;
42662;SDS011;44330;51.360;6.686;2023-03-12T13:49:52;34.58;;;8.65;;
42662;SDS011;44330;51.360;6.686;2023-03-12T13:57:48;32.17;;;6.05;;
42662;SDS011;44330;51.360;6.686;2023-03-12T14:00:22;35.80;;;7.07;;
42662;SDS011;44330;51.360;6.686;2023-03-12T14:05:44;22.02;;;4.85;;
42662;SDS011;44330;51.360;6.686;2023-03-12T14:10:51;38.05;;;6.05;;
42662;SDS011;44330;51.360;6.686;2023-03-12T14:13:41;40.13;;;6.88;;
42662;SDS011;44330;51.360;6.686;2023-03-12T14:19:06;25.67;;;5.90;;
42662;SDS011;44330;51.360;6.686;2023-03-12T14:21:37;40.13;;;6.65;;
42662;SDS011;44330;51.360;6.686;2023-03-12T14:24:05;30.83;;;7.30;;
42662;SDS011;44330;51.360;6.686;2023-03-12T14:26:33;31.83;;;6.85;;
42662;SDS011;44330;51.360;6.686;2023-03-12T14:29:08;29.30;;;6.47;;
42662;SDS011;44330;51.360;6.686;2023-03-12T14:31:56;30.65;;;5.97;;
42662;SDS011;44330;51.360;6.686;2023-03-12T14:34:26;34.97;;;7.30;;
42662;SDS011;44330;51.360;6.686;2023-03-12T14:37:02;36.88;;;6.38;;
42662;SDS011;44330;51.360;6.686;2023-03-12T14:39:50;39.65;;;7.03;;
42662;SDS011;44330;51.360;6.686;2023-03-12T14:42:38;35.57;;;6.03;;
42662;SDS011;44330;51.360;6.686;2023-03-12T14:48:05;36.60;;;6.57;;
42662;SDS011;44330;51.360;6.686;2023-03-12T14:50:28;38.33;;;6.45;;
42662;SDS011;44330;51.360;6.686;2023-03-12T14:53:18;30.65;;;6.65;;
42662;SDS011;44330;51.360;6.686;2023-03-12T14:55:58;33.75;;;5.85;;
42662;SDS011;44330;51.360;6.686;2023-03-12T14:58:25;38.37;;;7.30;;
42662;SDS011;44330;51.360;6.686;2023-03-12T15:01:01;28.45;;;5.40;;
42662;SDS011;44330;51.360;6.686;2023-03-12T15:03:30;30.10;;;6.63;;
42662;SDS011;44330;51.360;6.686;2023-03-12T15:06:04;43.28;;;7.65;;
42662;SDS011;44330;51.360;6.686;2023-03-12T15:08:42;36.00;;;7.30;;
42662;SDS011;44330;51.360;6.686;2023-03-12T15:11:08;38.95;;;6.60;;
42662;SDS011;44330;51.360;6.686;2023-03-12T15:13:35;32.25;;;5.97;;
42662;SDS011;44330;51.360;6.686;2023-03-12T15:16:02;39.13;;;7.40;;
42662;SDS011;44330;51.360;6.686;2023-03-12T15:18:29;36.17;;;7.20;;
42662;SDS011;44330;51.360;6.686;2023-03-12T15:20:57;34.00;;;7.28;;
42662;SDS011;44330;51.360;6.686;2023-03-12T15:23:25;37.65;;;6.30;;
42662;SDS011;44330;51.360;6.686;2023-03-12T15:28:55;36.80;;;6.03;;
42662;SDS011;44330;51.360;6.686;2023-03-12T15:31:25;39.00;;;6.20;;
42662;SDS011;44330;51.360;6.686;2023-03-12T15:33:58;26.23;;;4.70;;
42662;SDS011;44330;51.360;6.686;2023-03-12T15:36:27;33.58;;;6.40;;
42662;SDS011;44330;51.360;6.686;2023-03-12T15:38:59;32.30;;;6.75;;
42662;SDS011;44330;51.360;6.686;2023-03-12T15:41:26;34.00;;;5.40;;
42662;SDS011;44330;51.360;6.686;2023-03-12T15:44:20;38.97;;;6.53;;
42662;SDS011;44330;51.360;6.686;2023-03-12T15:46:48;25.70;;;5.18;;
42662;SDS011;44330;51.360;6.686;2023-03-12T15:49:20;36.03;;;6.43;;
42662;SDS011;44330;51.360;6.686;2023-03-12T15:52:02;36.50;;;7.47;;
42662;SDS011;44330;51.360;6.686;2023-03-12T15:57:47;26.38;;;6.10;;
42662;SDS011;44330;51.360;6.686;2023-03-12T16:00:21;26.42;;;5.97;;
42662;SDS011;44330;51.360;6.686;2023-03-12T16:02:53;41.03;;;5.72;;
42662;SDS011;44330;51.360;6.686;2023-03-12T16:05:24;27.30;;;5.95;;
42662;SDS011;44330;51.360;6.686;2023-03-12T16:07:56;42.63;;;7.03;;
42662;SDS011;44330;51.360;6.686;2023-03-12T16:10:24;34.83;;;5.78;;
42662;SDS011;44330;51.360;6.686;2023-03-12T16:12:54;30.05;;;5.80;;
42662;SDS011;44330;51.360;6.686;2023-03-12T16:15:26;34.33;;;5.65;;
42662;SDS011;44330;51.360;6.686;2023-03-12T16:17:55;26.65;;;5.25;;
42662;SDS011;44330;51.360;6.686;2023-03-12T16:20:20;38.78;;;6.28;;
42662;SDS011;44330;51.360;6.686;2023-03-12T16:22:46;38.30;;;7.32;;
42662;SDS011;44330;51.360;6.686;2023-03-12T16:25:11;29.73;;;5.45;;
42662;SDS011;44330;51.360;6.686;2023-03-12T16:27:38;28.33;;;5.82;;
42662;SDS011;44330;51.360;6.686;2023-03-12T16:30:16;39.75;;;6.70;;
42662;SDS011;44330;51.360;6.686;2023-03-12T16:32:46;34.60;;;5.85;;
42662;SDS011;44330;51.360;6.686;2023-03-12T16:35:13;28.67;;;5.72;;
42662;SDS011;44330;51.360;6.686;2023-03-12T16:37:40;37.85;;;5.70;;
42662;SDS011;44330;51.360;6.686;2023-03-12T16:40:06;36.65;;;6.47;;
42662;SDS011;44330;51.360;6.686;2023-03-12T16:42:33;41.40;;;6.65;;
42662;SDS011;44330;51.360;6.686;2023-03-12T16:44:59;31.60;;;5.32;;
42662;SDS011;44330;51.360;6.686;2023-03-12T16:47:25;32.60;;;6.32;;
42662;SDS011;44330;51.360;6.686;2023-03-12T16:49:51;37.08;;;6.55;;